Time;durP1;ratioP1;P1;durP2;ratioP2;P2;SDS_P1;SDS_P2;PMS_P1;PMS_P2;Temp;Humidity;BMP_temperature;BMP_pressure;BME280_temperature;BME280_humidity;BME280_pressure;Samples;Min_cycle;Max_cycle;Signal;HPM_P1;HPM_P2
2022/08/03 00:00:04;;;;;;;2.17;1.80;;;20.90;68.40;;;;;;5001488;28;20671;-78
2022/08/03 00:02:30;;;;;;;2.53;1.30;;;20.90;68.70;;;;;;4989940;28;20498;-78
2022/08/03 00:04:55;;;;;;;2.50;1.85;;;20.90;68.50;;;;;;4997487;28;20041;-78
2022/08/03 00:07:21;;;;;;;4.57;2.30;;;20.90;69.00;;;;;;4989797;28;20512;-78
2022/08/03 00:09:47;;;;;;;2.85;1.75;;;20.80;68.70;;;;;;5009283;28;20033;-78
2022/08/03 00:12:12;;;;;;;4.97;2.13;;;20.80;68.60;;;;;;4983309;28;20049;-78
2022/08/03 00:14:38;;;;;;;2.63;2.10;;;20.70;69.30;;;;;;4981102;28;20027;-78
2022/08/03 00:17:03;;;;;;;2.72;2.42;;;20.70;68.80;;;;;;4965772;28;20125;-78
2022/08/03 00:19:29;;;;;;;6.57;1.60;;;20.70;68.70;;;;;;5008230;28;20035;-78
2022/08/03 00:21:55;;;;;;;3.40;1.95;;;20.70;69.00;;;;;;5000177;28;20132;-77
2022/08/03 00:24:20;;;;;;;3.67;1.80;;;20.60;70.10;;;;;;4979013;28;20076;-78
2022/08/03 00:26:46;;;;;;;2.35;1.85;;;20.70;70.40;;;;;;4999183;28;20052;-78
2022/08/03 00:29:11;;;;;;;6.13;1.92;;;20.70;71.90;;;;;;4993076;28;20026;-78
2022/08/03 00:31:37;;;;;;;4.40;2.22;;;20.60;70.50;;;;;;4982772;28;20038;-78
2022/08/03 00:34:02;;;;;;;3.55;1.88;;;20.50;70.20;;;;;;4996871;28;20044;-78
2022/08/03 00:36:28;;;;;;;3.53;1.80;;;20.40;69.70;;;;;;4957320;28;20494;-78
2022/08/03 00:38:55;;;;;;;4.18;2.33;;;20.40;69.80;;;;;;4992500;28;20034;-78
2022/08/03 00:41:20;;;;;;;2.30;1.90;;;20.30;70.00;;;;;;4976061;28;20497;-78
2022/08/03 00:43:46;;;;;;;6.63;1.83;;;20.30;70.10;;;;;;4993007;28;20029;-78
2022/08/03 00:46:12;;;;;;;6.05;1.98;;;20.20;70.20;;;;;;4966662;28;20378;-78
2022/08/03 00:48:37;;;;;;;2.72;1.77;;;20.20;70.90;;;;;;5023221;28;20124;-78
2022/08/03 00:51:03;;;;;;;1.90;1.67;;;20.20;70.70;;;;;;4985160;28;20106;-78
2022/08/03 00:53:29;;;;;;;2.00;1.83;;;20.20;71.70;;;;;;4986376;28;20038;-78
2022/08/03 00:55:54;;;;;;;3.08;1.60;;;20.20;71.40;;;;;;4990015;28;20119;-78
2022/08/03 00:58:20;;;;;;;3.67;1.50;;;20.10;71.10;;;;;;4979722;28;20034;-78
2022/08/03 01:00:45;;;;;;;6.55;2.17;;;20.10;71.20;;;;;;5004028;28;20534;-78
2022/08/03 01:03:11;;;;;;;5.43;2.40;;;20.10;71.10;;;;;;4972918;28;20042;-78
2022/08/03 01:05:48;;;;;;;2.10;1.73;;;19.90;70.80;;;;;;4986436;28;20052;-78
2022/08/03 01:08:41;;;;;;;3.63;1.85;;;19.90;71.60;;;;;;4997931;28;20046;-78
2022/08/03 01:11:16;;;;;;;6.78;2.38;;;19.90;71.90;;;;;;4998196;28;20446;-78
2022/08/03 01:14:21;;;;;;;4.80;2.30;;;19.80;73.50;;;;;;4987997;28;20034;-78
2022/08/03 01:17:00;;;;;;;4.15;2.05;;;19.80;72.60;;;;;;4999856;28;20030;-78
2022/08/03 01:20:17;;;;;;;2.88;1.85;;;19.70;71.70;;;;;;4991961;28;20498;-78
2022/08/03 01:23:10;;;;;;;2.78;1.48;;;19.70;72.30;;;;;;4950436;28;20726;-78
2022/08/03 01:26:13;;;;;;;2.00;1.70;;;19.70;73.70;;;;;;4988667;28;20397;-78
2022/08/03 01:29:04;;;;;;;4.07;1.92;;;19.70;72.40;;;;;;5019991;28;20046;-78
2022/08/03 01:31:38;;;;;;;4.00;2.40;;;19.50;72.00;;;;;;5007239;28;20524;-78
2022/08/03 01:34:05;;;;;;;4.47;2.40;;;19.50;72.30;;;;;;4988965;28;20030;-78
2022/08/03 01:36:43;;;;;;;3.05;1.90;;;19.50;73.30;;;;;;4995089;28;20039;-78
2022/08/03 01:39:10;;;;;;;2.90;1.50;;;19.50;73.30;;;;;;5001329;28;20041;-78
2022/08/03 01:41:39;;;;;;;3.60;1.70;;;19.40;73.10;;;;;;4997909;28;20508;-78
2022/08/03 01:44:06;;;;;;;5.85;2.85;;;19.40;72.30;;;;;;5000532;28;20037;-78
2022/08/03 01:46:32;;;;;;;3.42;2.53;;;19.30;73.00;;;;;;4972471;28;20068;-78
2022/08/03 01:48:58;;;;;;;5.45;2.40;;;19.20;72.60;;;;;;5000611;28;20050;-78
2022/08/03 01:51:23;;;;;;;4.57;2.45;;;19.10;73.40;;;;;;4967883;28;20045;-78
2022/08/03 01:53:50;;;;;;;4.47;2.67;;;19.00;74.80;;;;;;5002892;28;20128;-78
2022/08/03 01:56:16;;;;;;;4.63;2.78;;;19.10;73.30;;;;;;4964328;28;20040;-78
2022/08/03 01:58:42;;;;;;;2.42;2.22;;;19.10;74.30;;;;;;4978575;28;20030;-78
2022/08/03 02:01:07;;;;;;;2.25;2.03;;;19.10;72.90;;;;;;4975156;28;20030;-78
2022/08/03 02:03:35;;;;;;;5.40;2.17;;;19.10;72.90;;;;;;5006561;28;20038;-78
2022/08/03 02:06:01;;;;;;;8.15;2.75;;;19.00;73.30;;;;;;4975982;28;20033;-78
2022/08/03 02:08:26;;;;;;;9.15;2.72;;;19.00;74.70;;;;;;4976884;28;20038;-78
2022/08/03 02:10:53;;;;;;;2.60;2.40;;;18.80;74.70;;;;;;5000608;28;20042;-78
2022/08/03 02:13:18;;;;;;;3.35;2.47;;;18.80;74.80;;;;;;4983773;28;20067;-78
2022/08/03 02:15:44;;;;;;;6.65;2.03;;;18.80;75.70;;;;;;4956166;28;20030;-78
2022/08/03 02:18:09;;;;;;;4.03;2.58;;;18.80;74.80;;;;;;5000031;28;20537;-78
2022/08/03 02:20:37;;;;;;;3.83;2.88;;;18.80;73.50;;;;;;4990033;28;20030;-78
2022/08/03 02:23:03;;;;;;;6.65;2.58;;;18.70;73.70;;;;;;4981145;28;20037;-78
2022/08/03 02:25:29;;;;;;;4.47;2.60;;;18.70;80.60;;;;;;4993781;28;20046;-77
2022/08/03 02:27:57;;;;;;;5.30;2.92;;;18.60;82.40;;;;;;5012883;28;20433;-78
2022/08/03 02:30:26;;;;;;;3.40;2.30;;;18.60;82.60;;;;;;5017180;28;20041;-77
2022/08/03 02:32:55;;;;;;;4.07;2.90;;;18.60;79.80;;;;;;4978993;28;20684;-78
2022/08/03 02:35:21;;;;;;;7.40;2.53;;;18.60;76.10;;;;;;4995073;28;20256;-79
2022/08/03 02:37:50;;;;;;;3.00;2.70;;;18.60;78.70;;;;;;5000594;28;20033;-79
2022/08/03 02:40:20;;;;;;;3.42;2.65;;;18.50;76.20;;;;;;4984720;28;20029;-79
2022/08/03 02:42:46;;;;;;;4.90;2.63;;;18.50;76.10;;;;;;4997379;28;20032;-79
2022/08/03 02:45:12;;;;;;;5.05;3.13;;;18.40;77.30;;;;;;5001682;28;20026;-79
2022/08/03 02:47:40;;;;;;;3.63;3.22;;;18.40;77.20;;;;;;4977844;28;20101;-79
2022/08/03 02:50:07;;;;;;;6.07;3.17;;;18.30;76.70;;;;;;4963733;28;20490;-79
2022/08/03 02:52:32;;;;;;;7.95;2.47;;;18.20;76.50;;;;;;4978539;28;20026;-78
2022/08/03 02:54:59;;;;;;;5.57;3.10;;;18.20;77.80;;;;;;4981645;28;20026;-77
2022/08/03 02:57:26;;;;;;;3.20;2.53;;;18.00;78.10;;;;;;4988291;28;20064;-78
2022/08/03 02:59:52;;;;;;;3.40;2.17;;;18.10;78.20;;;;;;5011746;28;20029;-78
2022/08/03 03:02:17;;;;;;;3.20;2.83;;;18.20;78.90;;;;;;4965811;28;20033;-78
2022/08/03 03:04:43;;;;;;;2.97;2.63;;;18.20;78.30;;;;;;4988108;28;20033;-78
2022/08/03 03:07:11;;;;;;;5.70;2.83;;;18.20;79.60;;;;;;5020385;28;20517;-77
2022/08/03 03:09:37;;;;;;;7.22;3.72;;;18.10;85.40;;;;;;4988747;28;20117;-78
2022/08/03 03:12:03;;;;;;;5.90;2.75;;;18.00;84.40;;;;;;4965978;28;20427;-77
2022/08/03 03:14:29;;;;;;;3.35;2.50;;;18.00;87.30;;;;;;4994897;28;20048;-77
2022/08/03 03:16:54;;;;;;;6.07;3.00;;;18.00;93.00;;;;;;5007395;28;20523;-78
2022/08/03 03:19:20;;;;;;;6.13;3.00;;;18.00;93.00;;;;;;4980788;28;20046;-78
2022/08/03 03:21:45;;;;;;;7.63;3.00;;;18.00;92.20;;;;;;5009396;28;20459;-78
2022/08/03 03:24:11;;;;;;;3.80;2.85;;;18.00;88.70;;;;;;4988371;28;20525;-77
2022/08/03 03:26:36;;;;;;;4.00;2.47;;;18.00;91.50;;;;;;5004046;28;20085;-77
2022/08/03 03:29:02;;;;;;;4.78;2.38;;;17.90;91.40;;;;;;5008966;28;20037;-78
2022/08/03 03:31:27;;;;;;;5.00;2.88;;;17.90;91.60;;;;;;4975720;28;20030;-77
2022/08/03 03:33:55;;;;;;;8.43;2.58;;;17.90;90.90;;;;;;4995396;28;20494;-77
2022/08/03 03:36:21;;;;;;;2.83;2.63;;;17.90;93.20;;;;;;4964732;28;20050;-77
2022/08/03 03:38:46;;;;;;;6.75;2.67;;;17.80;92.40;;;;;;4996214;28;20136;-77
2022/08/03 03:41:12;;;;;;;7.57;3.40;;;17.80;91.70;;;;;;5013413;28;20033;-78
2022/08/03 03:43:37;;;;;;;5.57;3.40;;;17.80;92.20;;;;;;5017601;28;20029;-77
2022/08/03 03:46:03;;;;;;;6.78;2.90;;;17.80;93.70;;;;;;5026253;28;20034;-77
2022/08/03 03:48:29;;;;;;;6.18;3.30;;;17.80;92.30;;;;;;4982172;28;20033;-77
2022/08/03 03:50:56;;;;;;;6.60;2.90;;;17.70;96.70;;;;;;4975987;28;20030;-77
2022/08/03 03:53:21;;;;;;;3.53;2.83;;;17.60;99.40;;;;;;4994007;28;20050;-78
2022/08/03 03:55:47;;;;;;;6.28;3.25;;;17.60;99.90;;;;;;5001725;28;20501;-77
2022/08/03 03:58:12;;;;;;;5.03;3.30;;;17.60;98.20;;;;;;5020144;28;20038;-77
2022/08/03 04:00:38;;;;;;;4.72;3.50;;;17.60;99.90;;;;;;4995588;28;20030;-77
2022/08/03 04:03:04;;;;;;;7.72;3.47;;;17.60;99.90;;;;;;5011493;28;20033;-77
2022/08/03 04:11:20;;;;;;;4.85;3.13;;;17.60;99.90;;;;;;5002821;28;20720;-77
2022/08/03 04:13:54;;;;;;;3.50;2.88;;;17.70;97.70;;;;;;4994387;28;20397;-78
2022/08/03 04:16:21;;;;;;;3.90;3.00;;;17.70;97.70;;;;;;4993009;28;20189;-78
2022/08/03 04:18:49;;;;;;;3.88;3.15;;;17.70;96.20;;;;;;4999188;28;20027;-78
2022/08/03 04:21:15;;;;;;;5.85;3.50;;;17.70;96.10;;;;;;4999499;28;20116;-77
2022/08/03 04:23:47;;;;;;;4.40;3.08;;;17.70;96.30;;;;;;4995911;28;20496;-78
2022/08/03 04:26:14;;;;;;;3.67;3.13;;;17.60;99.40;;;;;;4990158;28;20041;-78
2022/08/03 04:28:40;;;;;;;13.00;3.85;;;17.60;99.90;;;;;;5004586;28;20030;-78
2022/08/03 04:31:05;;;;;;;7.05;3.55;;;17.60;99.90;;;;;;4970559;28;20173;-78
2022/08/03 04:33:32;;;;;;;5.93;3.92;;;17.60;99.90;;;;;;4978079;28;20120;-78
2022/08/03 04:35:59;;;;;;;5.78;3.40;;;17.70;99.90;;;;;;4995431;28;20517;-79
2022/08/03 04:38:25;;;;;;;3.25;2.67;;;17.80;99.90;;;;;;5016599;28;20201;-79
2022/08/03 04:40:51;;;;;;;5.15;3.13;;;17.90;99.90;;;;;;4997027;28;20037;-79
2022/08/03 04:43:16;;;;;;;5.47;3.63;;;18.10;99.90;;;;;;4959370;28;20494;-79
2022/08/03 04:45:42;;;;;;;6.38;3.65;;;18.20;99.90;;;;;;4992722;28;20430;-79
2022/08/03 04:48:07;;;;;;;6.85;3.13;;;18.30;99.90;;;;;;4955450;28;20116;-79
2022/08/03 04:50:33;;;;;;;6.20;2.80;;;18.50;99.90;;;;;;4988684;28;20033;-79
2022/08/03 04:52:58;;;;;;;5.10;3.25;;;18.50;99.90;;;;;;4988706;28;20053;-79
2022/08/03 04:55:31;;;;;;;7.07;3.38;;;18.60;99.90;;;;;;4974984;28;20036;-79
2022/08/03 04:57:57;;;;;;;7.75;3.80;;;18.70;99.90;;;;;;4992089;28;20030;-79
2022/08/03 05:00:23;;;;;;;6.60;3.25;;;18.80;99.90;;;;;;4994729;28;20056;-79
2022/08/03 05:02:49;;;;;;;4.68;3.50;;;18.90;99.90;;;;;;5001681;28;20026;-79
2022/08/03 05:05:15;;;;;;;4.35;2.97;;;19.10;99.90;;;;;;5018175;28;20046;-79
2022/08/03 05:07:41;;;;;;;10.93;3.30;;;19.30;99.50;;;;;;5011775;28;20034;-79
2022/08/03 05:10:08;;;;;;;6.65;3.55;;;19.40;99.90;;;;;;4992382;28;20029;-79
2022/08/03 05:12:33;;;;;;;8.48;4.07;;;19.60;99.90;;;;;;5013950;28;20506;-79
2022/08/03 05:14:59;;;;;;;3.50;2.90;;;19.70;99.70;;;;;;4988144;28;20116;-80
2022/08/03 05:17:25;;;;;;;8.05;3.50;;;19.80;99.70;;;;;;4978866;28;20491;-79
2022/08/03 05:19:50;;;;;;;6.20;3.50;;;20.00;99.30;;;;;;4994303;28;20026;-79
2022/08/03 05:22:16;;;;;;;5.00;2.97;;;20.10;99.80;;;;;;4993045;28;20032;-79
2022/08/03 05:24:42;;;;;;;7.88;3.38;;;20.30;98.00;;;;;;4996403;28;20084;-79
2022/08/03 05:27:07;;;;;;;6.82;3.10;;;20.50;97.10;;;;;;4971838;28;20030;-79
2022/08/03 05:29:33;;;;;;;4.85;2.67;;;20.60;96.10;;;;;;4988148;28;20097;-79
2022/08/03 05:32:00;;;;;;;10.10;3.50;;;20.70;95.30;;;;;;4996049;28;20027;-79
2022/08/03 05:34:26;;;;;;;5.53;3.58;;;20.90;96.40;;;;;;4998654;28;20166;-79
2022/08/03 05:36:51;;;;;;;7.22;3.33;;;21.10;96.40;;;;;;5000275;28;20105;-80
2022/08/03 05:39:17;;;;;;;7.57;2.65;;;21.30;96.20;;;;;;4996676;28;20076;-79
2022/08/03 05:41:42;;;;;;;6.57;3.75;;;21.50;95.80;;;;;;4993232;28;20030;-79
2022/08/03 05:44:08;;;;;;;5.35;2.83;;;21.60;95.90;;;;;;4992527;28;20034;-80
2022/08/03 05:46:33;;;;;;;6.40;3.28;;;21.80;94.50;;;;;;5027730;28;20040;-79
2022/08/03 05:48:59;;;;;;;8.50;3.47;;;22.00;95.40;;;;;;4975300;28;20258;-79
2022/08/03 05:51:24;;;;;;;8.82;3.70;;;22.20;96.10;;;;;;4995994;28;20038;-79
2022/08/03 05:53:50;;;;;;;6.25;3.60;;;22.30;93.30;;;;;;5013050;28;20037;-79
2022/08/03 05:56:15;;;;;;;9.88;3.80;;;22.40;94.70;;;;;;4991085;28;20030;-80
2022/08/03 05:58:47;;;;;;;3.83;2.40;;;22.50;94.50;;;;;;4993400;28;20030;-79
2022/08/03 06:01:13;;;;;;;6.78;3.80;;;22.70;92.10;;;;;;5006824;28;20026;-79
2022/08/03 06:03:39;;;;;;;10.88;3.65;;;22.80;94.70;;;;;;4997442;28;20033;-80
2022/08/03 06:06:05;;;;;;;5.78;3.50;;;23.00;93.90;;;;;;4962008;28;20496;-80
2022/08/03 06:08:30;;;;;;;7.45;4.18;;;23.10;92.90;;;;;;4988902;28;20056;-80
2022/08/03 06:10:56;;;;;;;7.05;4.22;;;23.30;94.60;;;;;;5003422;28;20052;-79
2022/08/03 06:13:21;;;;;;;4.80;3.38;;;23.50;94.20;;;;;;4980730;28;20097;-80
2022/08/03 06:15:47;;;;;;;8.10;3.38;;;23.90;93.50;;;;;;5027476;28;20030;-80
2022/08/03 06:18:12;;;;;;;9.77;4.32;;;24.00;94.20;;;;;;5014175;28;20030;-79
2022/08/03 06:20:38;;;;;;;7.22;4.05;;;24.20;94.30;;;;;;5005214;28;20044;-79
2022/08/03 06:23:03;;;;;;;7.10;4.05;;;24.50;94.50;;;;;;5006868;28;20038;-80
2022/08/03 06:25:29;;;;;;;11.75;3.80;;;24.50;93.70;;;;;;4988120;28;20026;-79
2022/08/03 06:27:55;;;;;;;6.88;3.70;;;24.80;93.10;;;;;;4964130;28;20030;-79
2022/08/03 06:30:21;;;;;;;11.95;4.90;;;25.10;94.40;;;;;;4988879;28;20576;-79
2022/08/03 06:32:46;;;;;;;9.88;4.18;;;25.30;94.00;;;;;;4988018;28;20108;-79
2022/08/03 06:35:15;;;;;;;7.97;4.22;;;25.20;92.30;;;;;;4978430;28;20034;-79
2022/08/03 06:37:44;;;;;;;5.32;3.70;;;25.50;93.20;;;;;;4985282;28;21486;-79
2022/08/03 06:40:14;;;;;;;10.40;3.60;;;25.60;92.20;;;;;;4964631;28;20084;-79
2022/08/03 06:42:40;;;;;;;4.40;2.40;;;25.90;93.40;;;;;;4993006;28;20088;-79
2022/08/03 06:45:07;;;;;;;5.93;3.65;;;26.10;89.90;;;;;;5004303;28;20035;-79
2022/08/03 06:47:34;;;;;;;3.72;2.92;;;25.90;92.00;;;;;;5004958;28;20066;-79
2022/08/03 06:49:59;;;;;;;7.82;3.95;;;26.00;88.90;;;;;;5016157;28;20036;-79
2022/08/03 06:52:25;;;;;;;9.63;3.70;;;26.10;90.40;;;;;;4989036;28;20117;-79
2022/08/03 06:54:50;;;;;;;3.17;2.60;;;26.40;90.90;;;;;;4995043;28;20049;-79
2022/08/03 06:57:17;;;;;;;3.90;2.55;;;26.50;87.20;;;;;;4981381;28;20556;-80
2022/08/03 06:59:43;;;;;;;5.47;3.10;;;26.80;85.60;;;;;;4968993;28;20023;-79
2022/08/03 07:02:09;;;;;;;7.15;3.28;;;27.00;90.60;;;;;;4981504;28;20524;-79
2022/08/03 07:04:34;;;;;;;7.20;3.33;;;27.50;90.70;;;;;;5006370;28;20033;-79
2022/08/03 07:07:00;;;;;;;8.48;3.40;;;27.90;90.30;;;;;;5009514;28;20033;-80
2022/08/03 07:09:26;;;;;;;3.97;2.45;;;28.10;89.90;;;;;;4994658;28;20054;-79
2022/08/03 07:11:51;;;;;;;6.50;3.22;;;28.30;87.60;;;;;;5009420;28;20611;-79
2022/08/03 07:14:17;;;;;;;3.92;3.08;;;28.30;88.60;;;;;;4984951;28;20191;-79
2022/08/03 07:16:42;;;;;;;4.68;3.10;;;28.20;84.80;;;;;;5001518;28;20045;-79
2022/08/03 07:19:08;;;;;;;5.07;2.30;;;28.60;88.40;;;;;;5017728;28;20047;-80
2022/08/03 07:21:33;;;;;;;2.75;2.38;;;28.50;82.80;;;;;;5031438;28;20022;-80
2022/08/03 07:23:59;;;;;;;3.42;2.17;;;28.40;80.20;;;;;;4988907;28;20403;-80
2022/08/03 07:26:25;;;;;;;5.20;2.20;;;28.60;82.40;;;;;;5008611;28;20414;-80
2022/08/03 07:28:50;;;;;;;3.42;2.30;;;28.80;83.80;;;;;;4979570;28;20037;-80
2022/08/03 07:31:18;;;;;;;6.80;2.72;;;28.90;80.30;;;;;;4996734;28;20027;-80
2022/08/03 07:33:44;;;;;;;3.35;2.58;;;29.20;82.00;;;;;;4977757;28;20039;-80
2022/08/03 07:36:10;;;;;;;4.95;2.17;;;29.20;81.40;;;;;;4993148;28;20036;-80
2022/08/03 07:38:36;;;;;;;5.28;3.03;;;29.20;77.10;;;;;;4994595;28;20029;-79
2022/08/03 07:41:02;;;;;;;6.40;2.63;;;29.30;76.80;;;;;;4998471;28;20030;-79
2022/08/03 07:43:27;;;;;;;3.05;2.33;;;29.70;81.00;;;;;;4975781;28;20034;-80
2022/08/03 07:45:53;;;;;;;6.57;2.80;;;29.90;77.90;;;;;;4964108;28;20029;-80
2022/08/03 07:48:19;;;;;;;4.22;2.35;;;30.10;78.80;;;;;;4993034;28;20037;-81
2022/08/03 07:50:45;;;;;;;5.78;2.38;;;30.30;75.90;;;;;;4990713;28;20414;-81
2022/08/03 07:53:10;;;;;;;5.15;2.63;;;30.30;76.80;;;;;;4978557;28;20046;-81
2022/08/03 07:55:36;;;;;;;4.68;2.42;;;30.40;76.70;;;;;;4988726;28;20037;-81
2022/08/03 07:58:01;;;;;;;3.67;3.13;;;30.30;70.60;;;;;;4992882;28;20049;-81
2022/08/03 08:00:27;;;;;;;7.35;2.90;;;30.20;73.80;;;;;;5011963;28;20026;-81
2022/08/03 08:02:53;;;;;;;3.33;2.30;;;30.60;75.10;;;;;;5019549;28;20029;-81
2022/08/03 08:05:18;;;;;;;3.15;2.17;;;30.60;74.00;;;;;;4974600;28;20022;-81
2022/08/03 08:07:44;;;;;;;8.32;2.13;;;30.80;73.50;;;;;;4997878;28;20112;-82
2022/08/03 08:10:09;;;;;;;4.72;2.08;;;30.50;71.70;;;;;;4997449;28;20441;-82
2022/08/03 08:12:35;;;;;;;3.22;2.28;;;30.60;72.50;;;;;;4996987;28;20025;-82
2022/08/03 08:15:01;;;;;;;4.47;2.38;;;30.50;71.60;;;;;;5008323;28;20119;-82
2022/08/03 08:17:27;;;;;;;5.25;2.75;;;30.60;72.70;;;;;;4991417;28;20069;-81
2022/08/03 08:19:52;;;;;;;4.80;2.75;;;30.60;71.40;;;;;;4996684;28;20018;-82
2022/08/03 08:22:18;;;;;;;4.30;1.75;;;30.80;70.70;;;;;;4970637;28;20502;-82
2022/08/03 08:24:44;;;;;;;4.82;2.08;;;30.90;68.70;;;;;;4996477;28;20502;-83
2022/08/03 08:27:10;;;;;;;5.05;1.80;;;30.90;68.10;;;;;;4974841;28;20108;-82
2022/08/03 08:29:37;;;;;;;3.05;1.90;;;31.10;67.40;;;;;;5006177;28;20365;-82
2022/08/03 08:32:03;;;;;;;3.63;1.83;;;31.10;66.30;;;;;;4964160;28;20037;-83
2022/08/03 08:34:28;;;;;;;8.10;2.22;;;31.10;66.30;;;;;;5001746;28;20052;-82
2022/08/03 08:36:54;;;;;;;3.67;2.30;;;31.20;65.80;;;;;;4999421;28;20041;-83
2022/08/03 08:39:19;;;;;;;6.28;2.03;;;31.40;65.20;;;;;;4979159;28;20026;-83
2022/08/03 08:41:45;;;;;;;3.22;1.85;;;31.40;65.10;;;;;;4964039;28;20103;-82
2022/08/03 08:44:10;;;;;;;5.05;2.40;;;31.40;63.80;;;;;;4984302;28;20053;-83
2022/08/03 08:46:36;;;;;;;2.22;1.73;;;31.50;63.50;;;;;;4973936;28;20140;-83
2022/08/03 08:49:02;;;;;;;2.80;1.70;;;31.90;64.90;;;;;;4988776;28;20121;-83
2022/08/03 08:51:29;;;;;;;4.18;1.58;;;32.20;64.00;;;;;;4985308;28;20282;-83
2022/08/03 08:53:55;;;;;;;5.53;1.88;;;32.30;63.90;;;;;;4989421;28;20041;-83
2022/08/03 08:56:24;;;;;;;4.20;1.83;;;32.50;63.50;;;;;;4974015;28;20042;-82
2022/08/03 08:58:56;;;;;;;2.97;2.00;;;32.20;60.70;;;;;;5003558;28;20034;-82
2022/08/03 09:01:22;;;;;;;6.35;2.05;;;32.40;61.00;;;;;;4974487;28;20209;-82
2022/08/03 09:03:47;;;;;;;3.08;1.50;;;32.40;62.30;;;;;;4985537;28;20117;-82
2022/08/03 09:06:14;;;;;;;4.95;1.60;;;32.60;62.30;;;;;;5000565;28;20038;-82
2022/08/03 09:08:39;;;;;;;3.70;2.03;;;32.50;61.60;;;;;;5002892;28;20026;-81
2022/08/03 09:11:06;;;;;;;3.67;1.80;;;32.80;61.10;;;;;;5004290;28;20041;-82
2022/08/03 09:13:32;;;;;;;3.30;1.52;;;32.90;60.60;;;;;;5005957;28;20512;-81
2022/08/03 09:16:24;;;;;;;4.82;1.73;;;33.10;59.20;;;;;;4984510;28;20042;-81
2022/08/03 09:18:52;;;;;;;2.85;1.60;;;33.30;59.60;;;;;;4998536;28;20061;-81
2022/08/03 09:21:22;;;;;;;2.08;1.55;;;33.50;59.80;;;;;;4994213;28;20033;-80
2022/08/03 09:23:55;;;;;;;4.22;2.00;;;33.60;59.80;;;;;;4984566;28;20505;-80
2022/08/03 09:26:21;;;;;;;2.30;1.80;;;33.60;59.80;;;;;;4995967;28;20619;-80
2022/08/03 09:28:52;;;;;;;2.22;1.75;;;33.70;58.60;;;;;;5002596;28;20029;-79
2022/08/03 09:31:18;;;;;;;5.00;1.35;;;34.00;55.90;;;;;;4980334;28;20436;-80
2022/08/03 09:33:47;;;;;;;4.63;1.80;;;33.90;56.60;;;;;;4957393;28;20034;-79
2022/08/03 09:36:42;;;;;;;3.58;1.73;;;34.10;55.90;;;;;;4965306;28;20029;-79
2022/08/03 09:39:16;;;;;;;4.18;1.70;;;34.20;57.60;;;;;;4982213;28;20436;-80
2022/08/03 09:41:43;;;;;;;3.63;1.83;;;34.30;56.90;;;;;;5008908;28;20056;-80
2022/08/03 09:44:09;;;;;;;3.33;2.03;;;34.40;55.30;;;;;;5004800;28;20465;-79
2022/08/03 09:46:50;;;;;;;3.10;1.33;;;34.10;54.80;;;;;;4987716;28;20049;-79
2022/08/03 09:49:16;;;;;;;3.63;1.80;;;34.50;56.60;;;;;;4959623;28;20125;-79
2022/08/03 09:51:42;;;;;;;2.92;1.60;;;34.80;56.90;;;;;;4991383;28;20132;-79
2022/08/03 09:54:08;;;;;;;6.35;1.73;;;34.90;57.40;;;;;;4962005;28;20054;-80
2022/08/03 09:56:43;;;;;;;1.85;1.50;;;34.90;57.30;;;;;;4965819;28;20026;-79
2022/08/03 09:59:10;;;;;;;3.05;1.30;;;35.00;56.20;;;;;;4981273;28;20548;-80
2022/08/03 10:01:36;;;;;;;2.17;1.58;;;35.30;54.90;;;;;;4972071;28;20057;-80
2022/08/03 10:04:01;;;;;;;6.63;2.03;;;35.50;53.70;;;;;;5006424;28;20465;-79
2022/08/03 10:06:27;;;;;;;5.63;2.03;;;35.80;53.60;;;;;;4991714;28;20041;-78
2022/08/03 10:09:06;;;;;;;3.22;1.58;;;36.10;53.00;;;;;;5004883;28;20034;-80
2022/08/03 10:11:33;;;;;;;2.88;1.80;;;36.00;54.50;;;;;;5000522;28;20456;-80
2022/08/03 10:14:03;;;;;;;3.95;2.10;;;35.90;55.00;;;;;;4975290;28;20026;-80
2022/08/03 10:16:33;;;;;;;4.15;1.52;;;35.90;54.10;;;;;;4988973;28;20042;-80
2022/08/03 10:18:58;;;;;;;3.97;1.70;;;36.00;53.40;;;;;;5013824;28;20052;-80
2022/08/03 10:21:24;;;;;;;3.65;1.40;;;36.20;54.20;;;;;;4980133;28;20038;-79
2022/08/03 10:23:49;;;;;;;4.28;1.85;;;36.50;51.60;;;;;;5007262;28;20034;-80
2022/08/03 10:26:15;;;;;;;5.90;1.33;;;36.70;50.40;;;;;;4988769;28;20030;-80
2022/08/03 10:28:45;;;;;;;5.55;1.38;;;36.50;49.80;;;;;;4997370;28;20041;-80
2022/08/03 10:31:12;;;;;;;2.05;1.50;;;36.80;50.10;;;;;;4968825;28;20039;-81
2022/08/03 10:33:43;;;;;;;4.97;1.52;;;36.90;52.00;;;;;;5014143;28;20037;-80
2022/08/03 10:36:08;;;;;;;3.22;1.63;;;36.80;51.90;;;;;;5000334;28;20035;-80
2022/08/03 10:38:39;;;;;;;5.50;1.27;;;37.10;51.50;;;;;;4998956;28;20057;-80
2022/08/03 10:41:05;;;;;;;8.02;1.80;;;37.10;51.00;;;;;;4982141;28;20033;-79
2022/08/03 10:43:41;;;;;;;4.30;1.30;;;37.00;51.70;;;;;;4980933;28;20572;-80
2022/08/03 10:46:07;;;;;;;6.25;1.52;;;37.00;51.30;;;;;;5010424;28;20064;-80
2022/08/03 10:48:34;;;;;;;5.78;1.70;;;37.20;52.50;;;;;;4999129;28;20080;-80
2022/08/03 10:50:59;;;;;;;2.90;1.27;;;37.40;51.00;;;;;;4988432;28;20033;-80
2022/08/03 10:53:39;;;;;;;9.63;2.33;;;37.20;51.60;;;;;;4986564;28;20046;-80
2022/08/03 10:58:53;;;;;;;5.10;1.20;;;37.60;50.60;;;;;;4984047;28;20037;-80
2022/08/03 11:01:39;;;;;;;4.18;1.30;;;37.60;49.90;;;;;;4994168;28;20470;-80
2022/08/03 11:04:05;;;;;;;2.15;1.02;;;37.80;50.60;;;;;;4994874;28;20038;-81
2022/08/03 11:06:30;;;;;;;8.80;1.55;;;37.70;50.10;;;;;;4994027;28;20045;-80
2022/08/03 11:09:15;;;;;;;4.82;2.15;;;37.80;49.70;;;;;;5013724;28;20036;-80
2022/08/03 11:11:42;;;;;;;5.28;1.25;;;38.20;49.40;;;;;;5006188;28;20433;-78
2022/08/03 11:14:14;;;;;;;2.53;1.20;;;38.30;48.90;;;;;;5001712;28;20490;-81
2022/08/03 11:16:46;;;;;;;3.50;1.30;;;38.30;49.50;;;;;;5005171;28;20512;-78
2022/08/03 11:19:13;;;;;;;3.65;1.45;;;38.30;48.10;;;;;;4983440;28;20038;-78
2022/08/03 11:21:50;;;;;;;2.35;1.25;;;38.60;47.10;;;;;;4999012;28;20064;-81
2022/08/03 11:24:50;;;;;;;9.32;1.23;;;38.80;46.90;;;;;;5010883;28;20029;-79
2022/08/03 11:27:29;;;;;;;1.65;1.05;;;38.50;48.20;;;;;;5011967;28;20116;-82
2022/08/03 11:30:04;;;;;;;4.20;1.58;;;38.60;46.60;;;;;;4995167;28;20034;-79
2022/08/03 11:32:56;;;;;;;3.88;1.30;;;38.50;48.00;;;;;;4961196;28;20030;-80
2022/08/03 11:35:27;;;;;;;2.53;1.10;;;38.40;48.50;;;;;;5011491;28;20030;-79
2022/08/03 11:37:57;;;;;;;5.60;1.05;;;38.70;47.90;;;;;;5006569;28;20029;-79
2022/08/03 11:40:34;;;;;;;3.75;1.02;;;38.80;47.40;;;;;;5017162;28;20042;-79
2022/08/03 11:43:00;;;;;;;5.28;1.23;;;39.20;46.30;;;;;;4992649;28;20117;-79
2022/08/03 11:45:26;;;;;;;1.98;0.93;;;39.60;46.60;;;;;;4995082;28;20037;-78
2022/08/03 11:47:57;;;;;;;4.38;0.90;;;39.70;45.10;;;;;;4976644;28;20026;-79
2022/08/03 11:50:23;;;;;;;7.95;1.27;;;39.70;45.90;;;;;;4997646;28;20033;-79
2022/08/03 11:52:48;;;;;;;6.57;1.00;;;39.90;45.80;;;;;;4959847;28;20111;-79
2022/08/03 11:55:19;;;;;;;4.72;1.13;;;39.80;46.30;;;;;;4999028;28;20402;-78
2022/08/03 11:57:45;;;;;;;2.72;0.70;;;39.60;46.50;;;;;;4981496;28;20394;-79
2022/08/03 12:00:28;;;;;;;4.50;1.23;;;39.50;46.60;;;;;;4980815;28;20053;-79
2022/08/03 12:03:01;;;;;;;3.42;1.15;;;39.40;46.50;;;;;;4995184;28;20026;-79
2022/08/03 12:05:53;;;;;;;3.53;1.10;;;39.70;46.60;;;;;;4986533;28;20058;-79
2022/08/03 12:08:31;;;;;;;4.20;0.95;;;40.30;45.00;;;;;;4982156;28;20117;-79
2022/08/03 12:10:57;;;;;;;6.05;1.27;;;40.10;44.90;;;;;;4996425;28;20394;-79
2022/08/03 12:13:24;;;;;;;2.80;1.10;;;40.00;45.40;;;;;;4996771;28;20126;-79
2022/08/03 12:15:54;;;;;;;3.42;0.88;;;39.90;44.40;;;;;;4981010;28;20030;-78
2022/08/03 12:18:20;;;;;;;4.05;1.23;;;39.90;45.00;;;;;;4960145;28;20061;-78
2022/08/03 12:20:46;;;;;;;2.42;0.73;;;40.00;44.80;;;;;;4994191;28;20390;-79
2022/08/03 12:23:12;;;;;;;6.18;0.95;;;40.10;44.20;;;;;;5008922;28;20035;-79
2022/08/03 12:25:38;;;;;;;4.82;1.15;;;40.50;44.70;;;;;;4977137;28;20397;-79
2022/08/03 12:28:12;;;;;;;2.78;0.95;;;40.50;44.20;;;;;;5001196;28;20051;-78
2022/08/03 12:30:38;;;;;;;4.57;0.90;;;41.10;43.70;;;;;;4995672;28;20125;-79
2022/08/03 12:33:19;;;;;;;2.65;0.80;;;41.00;42.50;;;;;;4981482;28;20173;-79
2022/08/03 12:36:08;;;;;;;4.43;1.10;;;41.10;42.50;;;;;;4993138;28;20080;-79
2022/08/03 12:38:36;;;;;;;4.95;1.30;;;41.00;42.70;;;;;;4993816;28;20497;-80
2022/08/03 12:41:04;;;;;;;6.70;1.33;;;40.80;42.40;;;;;;4966186;28;20386;-80
2022/08/03 12:43:30;;;;;;;1.27;0.73;;;40.90;44.00;;;;;;4982091;28;20113;-79
2022/08/03 12:46:11;;;;;;;4.05;1.17;;;41.40;42.20;;;;;;4997258;28;20125;-79
2022/08/03 12:48:58;;;;;;;4.22;1.00;;;41.50;41.70;;;;;;4993417;28;20074;-79
2022/08/03 12:51:26;;;;;;;2.75;0.90;;;41.50;42.50;;;;;;4989944;28;20060;-79
2022/08/03 12:53:52;;;;;;;2.63;1.30;;;41.30;43.50;;;;;;5005397;28;20046;-79
2022/08/03 12:56:19;;;;;;;3.40;1.10;;;41.50;42.10;;;;;;4983027;28;20041;-79
2022/08/03 12:58:46;;;;;;;4.85;1.05;;;42.10;41.40;;;;;;4966372;28;20115;-79